Time;durP1;ratioP1;P1;durP2;ratioP2;P2;SDS_P1;SDS_P2;PMS_P1;PMS_P2;Temp;Humidity;BMP_temperature;BMP_pressure;BME280_temperature;BME280_humidity;BME280_pressure;Samples;Min_cycle;Max_cycle;Signal;HPM_P1;HPM_P2
2023/04/06 00:00:31;;;;;;;6.28;5.65;;;;;;;4.86;64.55;101589.31;5110796;28;20200;-69
2023/04/06 00:03:00;;;;;;;8.32;6.10;;;;;;;4.75;65.23;101583.13;5106906;28;20234;-70
2023/04/06 00:05:30;;;;;;;7.53;6.40;;;;;;;4.74;65.10;101589.50;5113136;28;20220;-70
2023/04/06 00:07:59;;;;;;;11.90;5.75;;;;;;;4.86;64.27;101578.59;5116120;28;20209;-69
2023/04/06 00:10:29;;;;;;;13.20;6.25;;;;;;;4.80;64.72;101578.19;5124434;28;20219;-70
2023/04/06 00:12:59;;;;;;;10.88;6.05;;;;;;;4.79;65.25;101576.47;5122383;28;20216;-69
2023/04/06 00:15:29;;;;;;;10.55;5.78;;;;;;;4.75;64.56;101575.09;5110181;28;20659;-69
2023/04/06 00:17:59;;;;;;;10.38;5.65;;;;;;;4.72;64.51;101570.03;5109148;28;20213;-69
2023/04/06 00:20:28;;;;;;;12.75;6.07;;;;;;;4.64;64.84;101578.00;5107726;28;20213;-67
2023/04/06 00:22:57;;;;;;;7.05;5.80;;;;;;;4.60;65.00;101570.38;5109208;28;20196;-69
2023/04/06 00:25:26;;;;;;;5.85;4.47;;;;;;;4.69;64.31;101569.50;5107044;28;20215;-67
2023/04/06 00:27:56;;;;;;;7.35;5.25;;;;;;;4.65;63.80;101568.94;5109817;28;20644;-68
2023/04/06 00:30:25;;;;;;;5.53;4.57;;;;;;;4.46;64.80;101563.63;5112699;28;20238;-67
2023/04/06 00:32:55;;;;;;;7.88;5.18;;;;;;;4.52;64.60;101564.91;5113356;28;20198;-68
2023/04/06 00:35:25;;;;;;;6.07;5.03;;;;;;;4.50;65.09;101570.44;5110354;28;20193;-72
2023/04/06 00:37:54;;;;;;;6.40;5.70;;;;;;;4.51;65.26;101572.09;5107133;28;20209;-69
2023/04/06 00:40:23;;;;;;;9.13;5.85;;;;;;;4.40;64.50;101568.75;5109509;28;20606;-69
2023/04/06 00:42:53;;;;;;;7.22;5.40;;;;;;;4.61;63.61;101561.34;5114811;27;20201;-70
2023/04/06 00:45:22;;;;;;;10.38;5.32;;;;;;;4.58;64.08;101567.84;5117249;28;20188;-67
2023/04/06 00:47:52;;;;;;;8.05;5.65;;;;;;;4.59;63.51;101558.81;5117081;27;20195;-67
2023/04/06 00:50:22;;;;;;;5.00;3.90;;;;;;;4.63;63.20;101559.34;5111559;28;20217;-68
2023/04/06 00:52:52;;;;;;;7.00;4.97;;;;;;;4.62;63.17;101558.50;5113455;27;20197;-69
2023/04/06 00:55:27;;;;;;;8.63;4.65;;;;;;;4.61;63.16;101554.13;5107282;28;20202;-69
2023/04/06 00:58:00;;;;;;;5.15;3.85;;;;;;;4.59;63.27;101549.94;5108447;28;20223;-69
2023/04/06 01:00:32;;;;;;;5.20;4.70;;;;;;;4.53;63.26;101551.34;5115971;27;20192;-71
2023/04/06 01:03:05;;;;;;;6.00;4.43;;;;;;;4.38;63.67;101552.81;5107741;28;20470;-70
2023/04/06 01:05:43;;;;;;;9.80;4.60;;;;;;;4.45;63.90;101551.25;5107485;28;20196;-68
2023/04/06 01:08:23;;;;;;;6.30;4.55;;;;;;;4.42;63.82;101551.53;5111344;28;20209;-70
2023/04/06 01:10:56;;;;;;;6.45;4.95;;;;;;;4.50;63.36;101548.13;5114372;27;20231;-69
2023/04/06 01:13:29;;;;;;;8.80;5.22;;;;;;;4.59;63.03;101556.13;5113657;27;20434;-70
2023/04/06 01:16:02;;;;;;;5.18;4.68;;;;;;;4.45;63.00;101555.78;5111356;27;20243;-66
2023/04/06 01:18:53;;;;;;;4.22;3.83;;;;;;;4.38;63.86;101550.13;5111368;27;20245;-68
2023/04/06 01:21:29;;;;;;;8.07;4.55;;;;;;;4.51;63.05;101550.66;5111846;27;20200;-67
2023/04/06 01:24:26;;;;;;;7.38;4.65;;;;;;;4.44;63.14;101554.91;5109868;28;20199;-69
2023/04/06 01:27:12;;;;;;;8.50;5.13;;;;;;;4.46;62.97;101554.75;5130126;27;20200;-69
2023/04/06 01:30:04;;;;;;;9.75;4.43;;;;;;;4.38;63.35;101547.47;5101445;27;20594;-69
2023/04/06 01:32:45;;;;;;;6.28;4.57;;;;;;;4.43;64.02;101553.22;5107923;28;20209;-70
2023/04/06 01:35:19;;;;;;;6.18;4.53;;;;;;;4.34;63.90;101552.28;5103503;28;20197;-69
2023/04/06 01:37:58;;;;;;;8.32;4.68;;;;;;;4.28;63.69;101552.00;5110073;28;20307;-70
2023/04/06 01:40:34;;;;;;;4.88;4.20;;;;;;;4.20;64.10;101554.56;5108175;28;20659;-70
2023/04/06 01:43:03;;;;;;;5.63;4.30;;;;;;;4.15;63.84;101559.50;5118235;27;20284;-69
2023/04/06 01:45:38;;;;;;;4.88;4.38;;;;;;;4.16;64.19;101555.84;5108799;28;20211;-68
2023/04/06 01:48:19;;;;;;;6.18;4.40;;;;;;;4.13;64.55;101556.13;5108274;27;20223;-68
2023/04/06 01:50:48;;;;;;;8.57;5.25;;;;;;;4.11;64.78;101553.63;5110863;27;20672;-67
2023/04/06 01:53:23;;;;;;;4.28;3.80;;;;;;;4.11;64.87;101547.41;5109747;28;20727;-70
2023/04/06 01:55:55;;;;;;;5.15;4.55;;;;;;;4.01;65.22;101554.63;5105847;28;20209;-69
2023/04/06 01:58:32;;;;;;;7.28;4.38;;;;;;;4.04;65.08;101548.97;5114889;27;20625;-68
2023/04/06 02:01:01;;;;;;;6.10;4.50;;;;;;;4.16;65.79;101546.00;5117734;27;20207;-66
2023/04/06 02:03:38;;;;;;;6.90;4.55;;;;;;;4.18;64.47;101543.13;5127899;27;20215;-69
2023/04/06 02:06:11;;;;;;;5.53;4.20;;;;;;;4.15;64.91;101548.81;5124523;27;20189;-68
2023/04/06 02:08:41;;;;;;;5.38;4.88;;;;;;;4.14;65.22;101547.09;5122031;27;20469;-70
2023/04/06 02:11:12;;;;;;;4.90;4.25;;;;;;;4.02;65.57;101546.41;5116531;27;20202;-69
2023/04/06 02:13:46;;;;;;;6.00;4.45;;;;;;;4.10;65.14;101551.91;5105360;27;20197;-68
2023/04/06 02:16:16;;;;;;;6.70;4.32;;;;;;;4.04;65.24;101546.28;5120302;27;20193;-68
2023/04/06 02:18:47;;;;;;;5.53;4.63;;;;;;;4.14;64.97;101547.97;5109560;28;20231;-69
2023/04/06 02:21:19;;;;;;;10.18;5.78;;;;;;;4.07;65.88;101551.34;5115320;27;20216;-69
2023/04/06 02:23:49;;;;;;;11.23;5.95;;;;;;;4.15;65.97;101551.47;5115809;27;20215;-67
2023/04/06 02:26:20;;;;;;;7.20;5.85;;;;;;;4.29;65.11;101551.03;5104095;28;20207;-68
2023/04/06 02:28:50;;;;;;;5.32;4.82;;;;;;;4.03;65.20;101547.25;5110349;27;20213;-69
2023/04/06 02:31:19;;;;;;;5.53;4.25;;;;;;;4.22;66.34;101545.38;5103652;28;20189;-68
2023/04/06 02:33:48;;;;;;;12.15;5.53;;;;;;;4.00;66.26;101542.22;5107771;27;20201;-66
2023/04/06 02:36:18;;;;;;;9.77;5.63;;;;;;;3.92;66.24;101548.28;5112540;27;20249;-67
2023/04/06 02:38:47;;;;;;;8.27;4.20;;;;;;;3.94;67.39;101546.28;5109597;28;20668;-66
2023/04/06 02:41:16;;;;;;;5.70;4.47;;;;;;;3.87;66.66;101545.19;5115091;27;20219;-69
2023/04/06 02:43:47;;;;;;;8.25;5.22;;;;;;;3.80;66.97;101544.06;5106739;28;20291;-68
2023/04/06 02:46:29;;;;;;;6.93;6.20;;;;;;;3.82;67.29;101542.94;5106604;28;20738;-68
2023/04/06 02:49:00;;;;;;;7.18;4.75;;;;;;;3.76;67.80;101546.19;5111997;27;20216;-68
2023/04/06 02:51:32;;;;;;;13.23;4.97;;;;;;;3.83;68.02;101539.25;5107584;28;20229;-67
2023/04/06 02:54:14;;;;;;;6.15;4.88;;;;;;;3.70;68.14;101540.56;5126603;27;20257;-68
2023/04/06 02:56:43;;;;;;;5.60;4.78;;;;;;;3.49;69.39;101543.34;5122515;28;20245;-68
2023/04/06 02:59:14;;;;;;;10.35;5.57;;;;;;;3.46;68.94;101547.19;5116743;28;20207;-68
2023/04/06 03:01:50;;;;;;;9.90;5.88;;;;;;;3.37;70.21;101550.69;5113868;27;20191;-70
2023/04/06 03:04:21;;;;;;;7.28;4.95;;;;;;;3.36;70.27;101545.47;5109592;28;20555;-68
2023/04/06 03:06:52;;;;;;;7.53;5.97;;;;;;;3.22;70.16;101546.75;5108294;27;20413;-68
2023/04/06 03:09:33;;;;;;;13.85;6.00;;;;;;;3.18;70.67;101552.50;5109237;27;20217;-67
2023/04/06 03:12:02;;;;;;;6.25;5.32;;;;;;;3.02;70.97;101559.22;5107651;27;20193;-67
2023/04/06 03:14:40;;;;;;;8.07;5.57;;;;;;;2.98;70.99;101565.84;5105678;28;20220;-68
2023/04/06 03:17:09;;;;;;;5.68;4.78;;;;;;;2.89;71.58;101561.31;5110138;28;20308;-68
2023/04/06 03:19:39;;;;;;;9.57;5.72;;;;;;;3.17;71.72;101553.47;5108025;28;20261;-70
2023/04/06 03:22:09;;;;;;;5.20;4.72;;;;;;;3.11;70.30;101556.69;5112840;27;20734;-68
2023/04/06 03:24:38;;;;;;;7.45;5.55;;;;;;;2.92;70.92;101558.34;5109398;27;20191;-67
2023/04/06 03:27:07;;;;;;;11.38;5.38;;;;;;;2.98;71.26;101564.97;5112017;27;20278;-69
2023/04/06 03:29:37;;;;;;;6.03;5.53;;;;;;;3.05;71.21;101561.63;5109326;28;20307;-70
2023/04/06 03:32:10;;;;;;;6.15;5.55;;;;;;;2.78;71.07;101561.41;5109471;27;20223;-68
2023/04/06 03:34:42;;;;;;;7.95;4.88;;;;;;;2.76;71.93;101563.34;5110163;28;20192;-67
2023/04/06 03:37:11;;;;;;;7.28;5.05;;;;;;;2.77;71.44;101570.41;5114447;27;20233;-69
2023/04/06 03:39:47;;;;;;;6.32;5.32;;;;;;;2.54;72.04;101568.91;5107273;28;20227;-68
2023/04/06 03:42:21;;;;;;;8.45;5.72;;;;;;;2.57;73.09;101563.28;5123578;27;20685;-68
2023/04/06 03:44:54;;;;;;;8.52;6.28;;;;;;;2.75;71.78;101577.72;5107215;28;20218;-68
2023/04/06 03:47:25;;;;;;;10.50;7.72;;;;;;;2.79;72.44;101575.63;5104970;27;20224;-67
2023/04/06 03:49:58;;;;;;;11.25;7.22;;;;;;;2.82;72.58;101573.50;5105410;28;20555;-66
2023/04/06 03:52:27;;;;;;;13.70;10.15;;;;;;;2.79;72.50;101579.13;5108273;28;20192;-66
2023/04/06 03:54:56;;;;;;;14.30;9.73;;;;;;;2.63;72.54;101573.44;5119089;28;20693;-69
2023/04/06 03:57:25;;;;;;;14.02;9.05;;;;;;;2.73;73.19;101577.00;5112225;28;20210;-68
2023/04/06 03:59:55;;;;;;;14.50;10.75;;;;;;;2.57;73.44;101580.16;5112125;28;20226;-68
2023/04/06 04:02:28;;;;;;;14.98;11.75;;;;;;;2.52;73.61;101581.53;5107120;28;20374;-67
2023/04/06 04:04:58;;;;;;;14.30;10.40;;;;;;;2.33;74.04;101582.28;5106887;28;20286;-69
2023/04/06 04:07:27;;;;;;;12.70;9.77;;;;;;;2.47;73.69;101583.78;5108050;28;20212;-67
2023/04/06 04:09:56;;;;;;;12.77;8.50;;;;;;;2.57;74.23;101585.50;5107398;28;20210;-67
2023/04/06 04:12:27;;;;;;;12.98;8.32;;;;;;;2.55;73.48;101591.97;5111380;28;20183;-69
2023/04/06 04:14:59;;;;;;;14.00;9.90;;;;;;;2.58;73.36;101589.03;5108350;28;20227;-69
2023/04/06 04:17:29;;;;;;;12.45;7.50;;;;;;;2.46;74.32;101588.28;5108343;27;20198;-68
2023/04/06 04:19:58;;;;;;;16.33;8.35;;;;;;;2.52;74.26;101593.06;5109678;27;20592;-68
2023/04/06 04:22:28;;;;;;;12.23;8.10;;;;;;;2.43;74.92;101585.88;5115114;28;20540;-66
2023/04/06 04:24:57;;;;;;;15.20;9.13;;;;;;;2.56;74.58;101588.34;5112847;27;20188;-67
2023/04/06 04:27:27;;;;;;;14.10;7.90;;;;;;;2.34;74.55;101589.34;5139483;27;20199;-68
2023/04/06 04:29:56;;;;;;;17.73;8.40;;;;;;;2.41;74.72;101587.00;5113515;27;20620;-69
2023/04/06 04:32:27;;;;;;;11.00;8.23;;;;;;;2.49;75.07;101593.34;5109128;28;20286;-68
2023/04/06 04:34:59;;;;;;;11.85;8.93;;;;;;;2.54;74.60;101595.63;5115069;27;20192;-69
2023/04/06 04:37:41;;;;;;;11.45;7.47;;;;;;;2.43;74.68;101593.88;5124309;27;20193;-71
2023/04/06 04:40:12;;;;;;;12.10;7.88;;;;;;;2.53;74.63;101596.59;5113818;27;20211;-65
2023/04/06 04:42:51;;;;;;;11.23;10.05;;;;;;;2.38;74.54;101596.09;5113834;27;20196;-69
2023/04/06 04:45:27;;;;;;;8.65;7.20;;;;;;;2.57;74.43;101595.34;5107494;28;20657;-68
2023/04/06 04:47:57;;;;;;;14.10;8.80;;;;;;;2.29;75.10;101596.91;5111222;27;20187;-69
2023/04/06 04:50:32;;;;;;;11.27;8.63;;;;;;;2.12;75.77;101589.50;5105273;28;20186;-69
2023/04/06 04:53:02;;;;;;;10.63;9.30;;;;;;;2.09;76.46;101595.94;5115599;27;20201;-67
2023/04/06 04:55:31;;;;;;;9.30;8.02;;;;;;;2.15;76.62;101600.75;5112320;27;20196;-69
2023/04/06 04:58:02;;;;;;;14.20;8.85;;;;;;;2.23;76.25;101597.41;5119748;27;20812;-68
2023/04/06 05:00:47;;;;;;;11.13;8.75;;;;;;;2.32;76.38;101601.16;5116002;27;20215;-69
2023/04/06 05:03:21;;;;;;;13.02;9.40;;;;;;;3.25;74.83;101609.78;5109479;28;20206;-68
2023/04/06 05:05:59;;;;;;;17.55;11.48;;;;;;;4.75;69.18;101607.28;5109652;27;20287;-67
2023/04/06 05:08:32;;;;;;;19.40;9.80;;;;;;;5.89;62.97;101603.22;5107255;28;20331;-67
2023/04/06 05:11:02;;;;;;;14.52;9.55;;;;;;;6.21;60.64;101598.09;5105973;28;20284;-69
2023/04/06 05:13:35;;;;;;;11.85;9.27;;;;;;;5.66;61.75;101602.81;5114540;27;20201;-70
2023/04/06 05:16:10;;;;;;;11.75;10.65;;;;;;;5.33;62.55;101606.97;5113728;27;20193;-69
2023/04/06 05:18:40;;;;;;;17.20;10.73;;;;;;;4.84;64.18;101610.09;5111433;28;20216;-69
2023/04/06 05:21:12;;;;;;;12.35;9.43;;;;;;;4.41;65.63;101611.47;5108812;27;20202;-68
2023/04/06 05:24:05;;;;;;;10.63;9.23;;;;;;;4.08;67.04;101607.44;5108973;27;20197;-67
2023/04/06 05:26:35;;;;;;;14.00;9.38;;;;;;;3.92;68.08;101610.69;5113747;27;20212;-69
2023/04/06 05:29:10;;;;;;;15.05;9.25;;;;;;;3.84;68.39;101615.06;5118320;27;20218;-69
2023/04/06 05:31:40;;;;;;;11.45;9.45;;;;;;;3.82;68.48;101607.22;5120041;27;20360;-67
2023/04/06 05:34:10;;;;;;;15.65;9.70;;;;;;;3.63;69.52;101611.72;5116445;27;20204;-68
2023/04/06 05:36:41;;;;;;;12.60;8.63;;;;;;;3.73;70.04;101617.88;5114305;27;20574;-68
2023/04/06 05:39:19;;;;;;;9.90;8.52;;;;;;;3.75;70.13;101621.28;5114464;28;20335;-69
2023/04/06 05:41:53;;;;;;;12.48;9.93;;;;;;;3.76;70.10;101622.97;5122038;27;20318;-70
2023/04/06 05:44:39;;;;;;;10.05;8.75;;;;;;;3.77;70.26;101625.53;5123523;27;20197;-68
2023/04/06 05:47:13;;;;;;;13.23;9.38;;;;;;;3.80;70.24;101625.22;5112321;27;20316;-69
2023/04/06 05:49:43;;;;;;;11.27;8.13;;;;;;;3.93;69.20;101625.78;5111644;28;20216;-67
2023/04/06 05:52:21;;;;;;;13.30;8.65;;;;;;;3.93;69.42;101624.94;5110806;27;20195;-68
2023/04/06 05:54:51;;;;;;;11.07;8.65;;;;;;;4.04;68.63;101626.63;5111656;27;20733;-69
2023/04/06 05:57:20;;;;;;;9.45;8.10;;;;;;;4.05;68.98;101625.66;5113835;27;20255;-68
2023/04/06 05:59:50;;;;;;;10.75;8.85;;;;;;;4.18;69.03;101615.47;5110108;27;20398;-69
2023/04/06 06:02:21;;;;;;;12.38;8.85;;;;;;;4.45;67.44;101620.94;5127353;27;20198;-68
2023/04/06 06:04:52;;;;;;;10.15;8.80;;;;;;;4.51;67.16;101631.06;5108622;27;20208;-68
2023/04/06 06:07:24;;;;;;;12.30;8.85;;;;;;;4.49;67.20;101633.06;5110888;27;20216;-69
2023/04/06 06:10:01;;;;;;;10.60;9.50;;;;;;;4.51;67.00;101624.84;5115976;27;20736;-68
2023/04/06 06:12:36;;;;;;;12.65;8.82;;;;;;;4.64;66.21;101631.59;5110739;28;20704;-70
2023/04/06 06:15:06;;;;;;;14.48;8.68;;;;;;;4.74;65.87;101623.53;5109971;27;20204;-68
2023/04/06 06:17:39;;;;;;;9.23;7.68;;;;;;;4.89;65.65;101634.63;5111211;28;20535;-69
2023/04/06 06:20:10;;;;;;;11.25;9.65;;;;;;;5.01;65.10;101625.38;5107430;27;20204;-66
2023/04/06 06:22:40;;;;;;;9.35;8.45;;;;;;;5.24;64.21;101623.97;5114325;27;20187;-67
2023/04/06 06:25:15;;;;;;;12.77;9.02;;;;;;;5.40;64.03;101623.34;5108171;27;20228;-68
2023/04/06 06:27:46;;;;;;;9.70;8.70;;;;;;;5.47;63.21;101633.31;5107371;28;20233;-69
2023/04/06 06:30:21;;;;;;;9.95;8.68;;;;;;;5.55;62.75;101628.03;5146109;27;20217;-68
2023/04/06 06:32:52;;;;;;;14.82;8.90;;;;;;;5.63;62.81;101630.81;5107840;28;20682;-67
2023/04/06 06:35:21;;;;;;;10.65;9.40;;;;;;;5.63;62.99;101625.44;5107929;27;20254;-68
2023/04/06 06:37:52;;;;;;;8.55;7.35;;;;;;;5.83;62.14;101622.59;5106924;27;20724;-67
2023/04/06 06:40:25;;;;;;;14.25;9.30;;;;;;;6.03;61.54;101629.53;5105814;27;20646;-70
2023/04/06 06:42:56;;;;;;;8.98;7.15;;;;;;;5.97;61.02;101632.81;5106049;28;20718;-67
2023/04/06 06:45:30;;;;;;;10.45;8.40;;;;;;;6.09;61.01;101626.22;5104540;28;20713;-68
2023/04/06 06:47:59;;;;;;;10.00;9.00;;;;;;;6.07;61.05;101618.31;5112890;27;20225;-67
2023/04/06 06:50:29;;;;;;;9.07;8.18;;;;;;;6.15;60.45;101630.97;5105953;27;20272;-67
2023/04/06 06:52:59;;;;;;;13.52;10.38;;;;;;;6.24;60.14;101627.38;5110077;27;20280;-69
2023/04/06 06:55:28;;;;;;;11.95;9.50;;;;;;;6.31;60.26;101630.25;5108722;27;20594;-67
2023/04/06 06:57:58;;;;;;;14.98;8.68;;;;;;;6.53;59.32;101625.19;5106753;27;20246;-68
2023/04/06 07:00:27;;;;;;;11.05;9.00;;;;;;;6.64;59.80;101625.94;5106678;28;20217;-68
2023/04/06 07:02:56;;;;;;;9.48;7.70;;;;;;;6.80;58.01;101636.81;5112204;27;20205;-71
2023/04/06 07:05:25;;;;;;;11.68;9.25;;;;;;;6.95;58.18;101635.19;5108128;27;20283;-70
2023/04/06 07:08:00;;;;;;;10.15;8.07;;;;;;;7.07;57.69;101628.50;5132828;27;20225;-69
2023/04/06 07:10:29;;;;;;;11.88;7.10;;;;;;;7.28;56.60;101634.34;5111111;28;20190;-67
2023/04/06 07:12:58;;;;;;;11.95;8.18;;;;;;;7.21;56.11;101627.91;5117143;27;20252;-69
2023/04/06 07:15:27;;;;;;;8.85;7.93;;;;;;;7.22;56.14;101637.66;5114214;27;20287;-67
2023/04/06 07:17:56;;;;;;;11.55;7.82;;;;;;;7.30;55.88;101635.03;5106710;28;20187;-70
2023/04/06 07:20:25;;;;;;;9.40;7.28;;;;;;;7.34;54.65;101632.84;5110697;27;20225;-68
2023/04/06 07:22:54;;;;;;;8.50;7.57;;;;;;;7.31;54.85;101636.69;5109433;27;20217;-68
2023/04/06 07:25:29;;;;;;;9.15;6.75;;;;;;;7.43;54.78;101635.41;5108038;28;20196;-67
2023/04/06 07:27:58;;;;;;;10.75;7.72;;;;;;;7.47;54.40;101635.06;5111945;27;20216;-69
2023/04/06 07:30:28;;;;;;;12.88;8.25;;;;;;;7.57;53.25;101636.59;5109682;27;20212;-67
2023/04/06 07:33:00;;;;;;;9.95;7.72;;;;;;;7.68;52.56;101627.38;5108782;28;20198;-69
2023/04/06 07:35:31;;;;;;;10.90;7.47;;;;;;;7.75;52.76;101628.38;5102561;28;20282;-69
2023/04/06 07:38:00;;;;;;;8.15;7.35;;;;;;;7.67;52.67;101625.69;5103000;27;20700;-71
2023/04/06 07:40:32;;;;;;;7.20;6.45;;;;;;;7.63;52.24;101629.72;5106129;27;20195;-67
2023/04/06 07:43:02;;;;;;;13.38;6.30;;;;;;;7.84;51.44;101628.22;5107495;27;20210;-68
2023/04/06 07:45:32;;;;;;;9.40;6.55;;;;;;;7.92;51.05;101626.56;5110723;27;20187;-70
2023/04/06 07:48:03;;;;;;;8.80;6.45;;;;;;;7.92;50.54;101623.88;5104524;28;20590;-67
2023/04/06 07:50:33;;;;;;;12.82;7.57;;;;;;;8.11;50.46;101632.47;5122472;27;20526;-69
2023/04/06 07:53:03;;;;;;;8.48;6.55;;;;;;;8.14;49.84;101628.59;5108812;27;20193;-67
2023/04/06 07:55:34;;;;;;;7.28;6.38;;;;;;;8.20;50.07;101633.31;5105361;28;20304;-68
2023/04/06 07:58:03;;;;;;;10.95;6.57;;;;;;;8.41;49.55;101635.53;5109991;28;20213;-69
2023/04/06 08:00:32;;;;;;;7.90;6.40;;;;;;;8.58;49.25;101627.25;5112329;28;20212;-71
2023/04/06 08:03:01;;;;;;;6.57;5.28;;;;;;;8.49;47.99;101635.50;5110774;28;20221;-69
2023/04/06 08:05:31;;;;;;;9.20;6.57;;;;;;;8.47;48.56;101634.84;5107506;28;20240;-70
2023/04/06 08:07:59;;;;;;;8.88;5.97;;;;;;;8.58;47.62;101629.09;5108931;28;20188;-67
2023/04/06 08:10:29;;;;;;;11.18;5.10;;;;;;;8.62;48.10;101627.72;5107488;28;20274;-70
2023/04/06 08:12:59;;;;;;;6.78;5.78;;;;;;;8.76;47.62;101629.75;5109969;28;20251;-67
2023/04/06 08:15:28;;;;;;;6.95;4.70;;;;;;;8.94;47.61;101634.91;5105152;28;20204;-70
2023/04/06 08:17:57;;;;;;;9.15;6.10;;;;;;;9.20;46.92;101630.06;5108251;28;20185;-69
2023/04/06 08:20:26;;;;;;;7.03;5.10;;;;;;;9.12;46.06;101633.66;5111990;28;20286;-70
2023/04/06 08:22:55;;;;;;;8.18;5.18;;;;;;;9.12;45.67;101630.97;5109129;27;20299;-69
2023/04/06 08:25:25;;;;;;;6.68;3.92;;;;;;;8.79;44.90;101640.19;5107179;28;20227;-69
2023/04/06 08:27:54;;;;;;;5.43;4.22;;;;;;;8.82;45.37;101644.38;5108036;28;20254;-67
2023/04/06 08:30:26;;;;;;;5.00;3.83;;;;;;;8.84;44.89;101637.81;5110592;28;20201;-68
2023/04/06 08:32:55;;;;;;;7.38;5.07;;;;;;;9.00;45.12;101636.94;5103020;28;20650;-70
2023/04/06 08:35:24;;;;;;;9.40;4.35;;;;;;;9.05;44.79;101632.66;5103550;28;20190;-71
2023/04/06 08:37:53;;;;;;;11.25;4.65;;;;;;;9.14;45.46;101630.81;5106761;28;20633;-70
2023/04/06 08:40:23;;;;;;;6.03;4.07;;;;;;;9.18;43.72;101632.13;5108599;28;20200;-69
2023/04/06 08:42:53;;;;;;;5.82;4.13;;;;;;;9.44;43.70;101629.16;5109857;28;20598;-69
2023/04/06 08:45:22;;;;;;;11.93;4.03;;;;;;;9.31;43.48;101636.97;5112879;28;20192;-67
2023/04/06 08:47:54;;;;;;;3.45;2.92;;;;;;;9.55;42.48;101631.44;5108979;28;20187;-71
2023/04/06 08:50:25;;;;;;;8.02;4.18;;;;;;;9.68;42.15;101631.72;5107926;28;20197;-69
2023/04/06 08:52:54;;;;;;;6.03;4.25;;;;;;;9.75;43.27;101632.66;5106799;28;20253;-70
2023/04/06 08:55:24;;;;;;;5.50;3.38;;;;;;;9.80;41.36;101630.25;5115405;28;20197;-71
2023/04/06 08:57:55;;;;;;;7.85;3.00;;;;;;;9.55;41.22;101634.13;5111293;28;20245;-69
2023/04/06 09:00:26;;;;;;;3.92;2.88;;;;;;;9.58;41.32;101636.50;5108045;28;20206;-70
2023/04/06 09:02:58;;;;;;;5.00;3.50;;;;;;;9.59;42.05;101630.91;5104730;28;20295;-68
2023/04/06 09:05:27;;;;;;;5.95;4.38;;;;;;;9.77;41.73;101632.50;5111423;28;20185;-65
2023/04/06 09:07:57;;;;;;;6.50;3.83;;;;;;;9.93;41.16;101630.50;5110351;27;20277;-67
2023/04/06 09:10:26;;;;;;;5.03;3.70;;;;;;;9.69;41.67;101621.72;5111959;27;20267;-68
2023/04/06 09:13:05;;;;;;;6.55;4.18;;;;;;;9.92;41.20;101628.81;5114816;27;20189;-70
2023/04/06 09:15:34;;;;;;;6.65;3.28;;;;;;;10.22;40.62;101626.25;5110302;27;20307;-68
2023/04/06 09:18:05;;;;;;;4.65;2.60;;;;;;;10.18;38.98;101627.63;5110976;27;20212;-69
2023/04/06 09:20:34;;;;;;;4.95;3.13;;;;;;;10.41;38.93;101617.63;5104902;27;20189;-68
2023/04/06 09:23:03;;;;;;;6.32;3.17;;;;;;;10.39;38.77;101617.81;5111657;27;20216;-69
2023/04/06 09:25:32;;;;;;;4.88;3.00;;;;;;;10.39;38.95;101619.69;5111872;28;20193;-71
2023/04/06 09:28:03;;;;;;;4.35;3.15;;;;;;;10.56;38.45;101614.94;5107241;28;20264;-68
2023/04/06 09:30:32;;;;;;;4.63;2.53;;;;;;;10.73;38.50;101624.59;5114081;27;20642;-68
2023/04/06 09:33:01;;;;;;;5.33;3.77;;;;;;;11.05;38.05;101621.50;5110033;28;20192;-69
2023/04/06 09:35:32;;;;;;;5.03;3.00;;;;;;;10.79;36.38;101611.16;5107730;27;20427;-69
2023/04/06 09:38:12;;;;;;;5.80;3.87;;;;;;;10.52;37.69;101603.66;5107762;27;20875;-69
2023/04/06 09:40:50;;;;;;;3.93;2.67;;;;;;;10.57;36.25;101605.81;5112901;27;20661;-70
2023/04/06 09:43:30;;;;;;;4.00;2.83;;;;;;;10.74;36.22;101602.75;5112991;27;20999;-68
2023/04/06 09:46:02;;;;;;;6.22;2.85;;;;;;;10.73;36.93;101602.94;5111051;28;20429;-71
2023/04/06 09:48:35;;;;;;;4.27;2.57;;;;;;;10.95;36.49;101598.44;5110512;28;20599;-71
2023/04/06 09:51:08;;;;;;;3.73;2.73;;;;;;;10.75;36.43;101608.97;5114731;27;20752;-69
2023/04/06 09:53:40;;;;;;;7.83;3.20;;;;;;;10.87;35.94;101596.69;5107824;28;20941;-68
2023/04/06 09:56:13;;;;;;;2.57;2.37;;;;;;;11.14;36.31;101601.41;5107253;28;20989;-66
2023/04/06 09:58:46;;;;;;;3.73;1.93;;;;;;;11.31;35.85;101591.22;5105393;28;21018;-65
2023/04/06 10:01:20;;;;;;;7.27;2.97;;;;;;;11.48;36.21;101599.94;5109811;28;20475;-70
2023/04/06 10:03:57;;;;;;;3.70;3.23;;;;;;;11.81;34.78;101592.22;5103995;28;20493;-71
2023/04/06 10:06:32;;;;;;;4.70;3.23;;;;;;;11.31;34.77;101585.78;5107719;28;20526;-69
2023/04/06 10:09:05;;;;;;;4.93;2.90;;;;;;;11.11;35.40;101587.41;5106175;27;20541;-71
2023/04/06 10:11:34;;;;;;;3.30;2.20;;;;;;;10.66;36.36;101575.75;5115162;27;20962;-70
2023/04/06 10:14:03;;;;;;;3.50;2.67;;;;;;;10.44;35.76;101576.69;5100378;28;20875;-69
2023/04/06 10:16:33;;;;;;;7.73;4.50;;;;;;;10.62;36.17;101582.56;5109692;28;20423;-68
2023/04/06 10:19:10;;;;;;;4.77;2.10;;;;;;;11.05;36.45;101583.59;5101256;27;20468;-70
2023/04/06 10:21:42;;;;;;;2.50;1.97;;;;;;;11.28;35.08;101578.88;5110637;28;20440;-68
2023/04/06 10:24:13;;;;;;;2.27;1.40;;;;;;;11.02;31.20;101586.69;5102733;28;20551;-69
2023/04/06 10:26:42;;;;;;;5.50;2.63;;;;;;;10.84;30.29;101580.81;5100640;27;20396;-68
2023/04/06 10:29:11;;;;;;;2.10;1.57;;;;;;;11.24;31.02;101576.72;5103180;28;20818;-69
2023/04/06 10:31:44;;;;;;;2.37;1.90;;;;;;;11.52;31.64;101574.97;5103414;27;20853;-69
2023/04/06 10:34:14;;;;;;;2.17;1.70;;;;;;;11.92;31.91;101580.84;5103201;27;20436;-70
2023/04/06 10:36:44;;;;;;;4.17;1.80;;;;;;;12.22;31.02;101576.94;5109954;27;20427;-69
2023/04/06 10:39:14;;;;;;;3.87;2.13;;;;;;;12.27;30.70;101584.50;5106140;28;20462;-72
2023/04/06 10:41:44;;;;;;;3.80;2.13;;;;;;;12.44;30.52;101580.47;5109374;27;20428;-65
2023/04/06 10:44:21;;;;;;;4.40;2.50;;;;;;;12.43;30.85;101570.63;5105639;28;20841;-68
2023/04/06 10:46:57;;;;;;;2.67;1.80;;;;;;;12.50;30.86;101580.50;5105690;28;20406;-70
2023/04/06 10:49:27;;;;;;;2.57;1.67;;;;;;;12.36;31.68;101584.16;5107462;27;20809;-68
2023/04/06 10:51:58;;;;;;;2.13;1.90;;;;;;;12.47;30.45;101572.75;5098132;28;20429;-68
2023/04/06 10:54:29;;;;;;;2.40;2.20;;;;;;;12.38;29.16;101587.50;5107758;27;20458;-67
2023/04/06 10:56:58;;;;;;;4.13;2.43;;;;;;;12.42;29.65;101575.22;5102661;27;20902;-72
2023/04/06 10:59:29;;;;;;;2.23;1.77;;;;;;;12.40;29.70;101577.28;5106926;28;20449;-66
2023/04/06 11:01:58;;;;;;;3.57;2.60;;;;;;;12.34;30.15;101566.41;5108126;27;20421;-69
2023/04/06 11:04:27;;;;;;;2.97;2.13;;;;;;;12.33;29.04;101568.28;5106170;27;20442;-67
2023/04/06 11:06:58;;;;;;;2.40;2.20;;;;;;;12.31;29.36;101570.31;5104250;27;20439;-68
2023/04/06 11:09:28;;;;;;;4.03;2.20;;;;;;;12.50;28.76;101558.78;5102547;28;20437;-68
2023/04/06 11:11:57;;;;;;;3.60;2.37;;;;;;;12.69;29.29;101556.38;5108499;28;20411;-69
2023/04/06 11:14:26;;;;;;;3.00;1.90;;;;;;;12.41;30.01;101565.41;5115321;27;20402;-70
2023/04/06 11:16:55;;;;;;;2.50;1.87;;;;;;;11.99;30.69;101565.47;5108911;28;20408;-68
2023/04/06 11:19:25;;;;;;;2.60;2.23;;;;;;;11.94;29.92;101554.38;5108400;27;20531;-66
2023/04/06 11:21:54;;;;;;;4.77;2.77;;;;;;;11.81;30.76;101551.53;5108086;28;20421;-69
2023/04/06 11:24:26;;;;;;;2.70;2.37;;;;;;;11.73;30.55;101539.78;5099290;27;20467;-69
2023/04/06 11:26:57;;;;;;;2.63;1.90;;;;;;;12.01;30.64;101538.97;5101593;28;20493;-69
2023/04/06 11:29:28;;;;;;;3.70;2.00;;;;;;;12.49;30.89;101550.84;5109570;27;20569;-67
2023/04/06 11:32:01;;;;;;;3.57;2.30;;;;;;;12.24;30.83;101547.75;5118004;28;20458;-70
2023/04/06 11:34:32;;;;;;;1.97;1.80;;;;;;;12.41;30.67;101540.13;5112086;28;20464;-70
2023/04/06 11:37:05;;;;;;;2.50;1.83;;;;;;;12.79;30.30;101540.56;5107145;27;20428;-71
2023/04/06 11:39:41;;;;;;;5.40;2.63;;;;;;;12.32;29.96;101544.03;5112695;27;20479;-70
2023/04/06 11:42:10;;;;;;;3.17;2.60;;;;;;;12.35;30.18;101549.88;5109132;28;20807;-68
2023/04/06 11:44:42;;;;;;;3.93;2.70;;;;;;;12.61;29.75;101544.66;5176026;22;20461;-69
2023/04/06 11:47:13;;;;;;;4.47;2.70;;;;;;;12.31;30.28;101532.31;5057019;28;20438;-69
2023/04/06 11:49:47;;;;;;;4.70;2.53;;;;;;;12.54;30.29;101532.91;5073568;28;20832;-69